Time;durP1;ratioP1;P1;durP2;ratioP2;P2;SDS_P1;SDS_P2;PMS_P1;PMS_P2;Temp;Humidity;BMP_temperature;BMP_pressure;BME280_temperature;BME280_humidity;BME280_pressure;Samples;Min_cycle;Max_cycle;Signal;HPM_P1;HPM_P2
2023/09/17 00:01:58;;;;;;;18.38;15.93;;;14.90;99.90;;;;;;4987725;28;20034;-80
2023/09/17 00:04:24;;;;;;;20.17;18.08;;;14.90;99.90;;;;;;4987517;28;20030;-80
2023/09/17 00:06:50;;;;;;;20.08;17.80;;;14.90;99.90;;;;;;4989008;28;20405;-80
2023/09/17 00:09:17;;;;;;;19.92;17.83;;;14.90;99.90;;;;;;4988312;28;20038;-80
2023/09/17 00:11:43;;;;;;;21.13;18.33;;;14.90;99.90;;;;;;4989415;28;20414;-79
2023/09/17 00:14:09;;;;;;;21.25;19.05;;;14.90;99.90;;;;;;4987457;28;20042;-79
2023/09/17 00:16:34;;;;;;;20.25;17.67;;;14.90;99.90;;;;;;4988480;28;20117;-80
2023/09/17 00:19:00;;;;;;;21.42;19.23;;;14.80;99.90;;;;;;4986940;28;20038;-80
2023/09/17 00:21:26;;;;;;;21.05;18.80;;;14.70;99.90;;;;;;4989339;28;20042;-80
2023/09/17 00:23:51;;;;;;;20.73;18.17;;;14.70;99.90;;;;;;4987762;28;20173;-79
2023/09/17 00:26:17;;;;;;;20.85;18.00;;;14.70;99.90;;;;;;4985699;28;20117;-80
2023/09/17 00:28:43;;;;;;;22.67;20.25;;;14.70;99.90;;;;;;4988553;28;20066;-79
2023/09/17 00:31:08;;;;;;;21.27;18.33;;;14.70;99.90;;;;;;4985821;28;20125;-79
2023/09/17 00:33:34;;;;;;;23.70;20.17;;;14.70;99.90;;;;;;4989986;28;20129;-80
2023/09/17 00:35:59;;;;;;;20.88;18.73;;;14.70;99.90;;;;;;4987688;28;20058;-79
2023/09/17 00:38:25;;;;;;;21.35;18.70;;;14.70;99.90;;;;;;4987370;28;20042;-79
2023/09/17 00:40:51;;;;;;;17.45;15.65;;;14.70;99.90;;;;;;4987143;28;20502;-79
2023/09/17 00:43:17;;;;;;;18.65;16.65;;;14.60;99.90;;;;;;4988622;28;20042;-80
2023/09/17 00:45:43;;;;;;;19.75;15.40;;;14.60;99.90;;;;;;4985766;28;20038;-79
2023/09/17 00:48:11;;;;;;;18.48;16.08;;;14.60;99.90;;;;;;4986430;28;20568;-79
2023/09/17 00:50:38;;;;;;;19.10;15.85;;;14.60;99.90;;;;;;4988067;28;20092;-79
2023/09/17 00:53:04;;;;;;;19.08;17.08;;;14.60;99.90;;;;;;4988139;28;20066;-79
2023/09/17 00:55:30;;;;;;;20.45;17.35;;;14.60;99.90;;;;;;4974242;28;20034;-78
2023/09/17 00:57:57;;;;;;;20.83;18.50;;;14.60;99.90;;;;;;4990037;28;20663;-79
2023/09/17 01:00:24;;;;;;;19.35;17.35;;;14.60;99.90;;;;;;4991644;28;20049;-79
2023/09/17 01:02:50;;;;;;;20.63;18.42;;;14.60;99.90;;;;;;4992508;28;20042;-79
2023/09/17 01:05:16;;;;;;;20.02;16.60;;;14.70;99.90;;;;;;4991704;28;20045;-79
2023/09/17 01:07:42;;;;;;;18.92;16.77;;;14.60;99.90;;;;;;4990533;28;20106;-79
2023/09/17 01:10:08;;;;;;;21.30;18.23;;;14.70;99.90;;;;;;4975687;28;20126;-79
2023/09/17 01:12:34;;;;;;;19.50;17.10;;;14.70;99.90;;;;;;4990057;28;20126;-79
2023/09/17 01:15:09;;;;;;;19.08;16.98;;;14.60;99.90;;;;;;4992194;28;20541;-79
2023/09/17 01:17:35;;;;;;;21.58;16.77;;;14.50;99.90;;;;;;4988079;28;20055;-79
2023/09/17 01:20:22;;;;;;;16.85;15.15;;;14.40;99.90;;;;;;4991586;28;20448;-78
2023/09/17 01:22:49;;;;;;;22.13;19.15;;;14.40;99.90;;;;;;4990828;28;20221;-79
2023/09/17 01:25:47;;;;;;;22.23;18.20;;;14.40;99.90;;;;;;4974851;28;20710;-79
2023/09/17 01:28:13;;;;;;;22.40;17.70;;;14.50;99.90;;;;;;4964426;28;20552;-79
2023/09/17 01:30:42;;;;;;;20.38;16.95;;;14.50;99.90;;;;;;4993559;28;20054;-79
2023/09/17 01:33:10;;;;;;;19.52;17.50;;;14.50;99.90;;;;;;4988250;28;20034;-79
2023/09/17 01:36:03;;;;;;;17.35;15.55;;;14.50;99.90;;;;;;4990228;28;20089;-78
2023/09/17 01:38:35;;;;;;;18.58;15.20;;;14.50;99.90;;;;;;4982509;28;20050;-78
2023/09/17 01:41:04;;;;;;;16.67;14.90;;;14.40;99.90;;;;;;4990278;28;20049;-78
2023/09/17 01:43:31;;;;;;;20.58;17.23;;;14.30;99.90;;;;;;4974488;28;20042;-78
2023/09/17 01:45:58;;;;;;;18.25;16.23;;;14.40;99.90;;;;;;4990334;28;20042;-79
2023/09/17 01:48:24;;;;;;;17.02;15.10;;;14.40;99.90;;;;;;4988964;28;20116;-79
2023/09/17 01:50:52;;;;;;;17.27;15.35;;;14.40;99.90;;;;;;4974905;28;20038;-79
2023/09/17 01:53:18;;;;;;;18.10;16.15;;;14.30;99.90;;;;;;4988327;28;20528;-79
2023/09/17 01:55:43;;;;;;;18.60;16.60;;;14.30;99.90;;;;;;4991320;28;20050;-78
2023/09/17 01:58:12;;;;;;;21.58;17.35;;;14.30;99.90;;;;;;4990165;28;20411;-78
2023/09/17 02:00:38;;;;;;;20.02;17.58;;;14.30;99.90;;;;;;4991112;28;20044;-79
2023/09/17 02:03:04;;;;;;;22.77;19.15;;;14.30;99.90;;;;;;4991306;28;20129;-79
2023/09/17 02:05:29;;;;;;;21.90;19.17;;;14.30;99.90;;;;;;4974719;28;20606;-78
2023/09/17 02:07:55;;;;;;;21.75;18.65;;;14.30;99.90;;;;;;4987942;28;20046;-79
2023/09/17 02:10:20;;;;;;;20.40;17.67;;;14.40;99.90;;;;;;4990813;28;20030;-78
2023/09/17 02:12:46;;;;;;;19.25;16.60;;;14.40;99.90;;;;;;4990797;28;20038;-79
2023/09/17 02:15:12;;;;;;;20.52;17.38;;;14.40;99.90;;;;;;4990648;28;20046;-79
2023/09/17 02:17:38;;;;;;;20.52;17.13;;;14.40;99.90;;;;;;4970206;28;20133;-78
2023/09/17 02:20:10;;;;;;;21.52;16.40;;;14.50;99.90;;;;;;4992688;28;20081;-78
2023/09/17 02:22:39;;;;;;;20.65;18.35;;;14.50;99.90;;;;;;4990241;28;20096;-79
2023/09/17 02:25:05;;;;;;;20.33;18.13;;;14.50;99.90;;;;;;4989720;28;20034;-78
2023/09/17 02:27:32;;;;;;;20.88;17.00;;;14.50;99.90;;;;;;4989864;28;20113;-78
2023/09/17 02:29:57;;;;;;;20.15;17.45;;;14.50;99.90;;;;;;4990228;28;20043;-78
2023/09/17 02:32:23;;;;;;;20.50;17.98;;;14.60;99.90;;;;;;4991165;28;20089;-79
2023/09/17 02:34:49;;;;;;;21.55;18.33;;;14.60;99.90;;;;;;4988513;28;20038;-78
2023/09/17 02:37:14;;;;;;;21.88;17.40;;;14.70;99.90;;;;;;4990688;28;20034;-79
2023/09/17 02:39:40;;;;;;;21.00;18.70;;;14.70;99.90;;;;;;4990447;28;20687;-79
2023/09/17 02:42:06;;;;;;;23.58;20.25;;;14.80;99.90;;;;;;4987605;28;20034;-78
2023/09/17 02:44:31;;;;;;;18.85;16.77;;;14.80;99.90;;;;;;4990742;28;20125;-78
2023/09/17 02:46:57;;;;;;;19.02;17.02;;;14.80;99.90;;;;;;4990600;28;20031;-79
2023/09/17 02:49:23;;;;;;;23.35;19.05;;;14.80;99.90;;;;;;4987972;28;20038;-79
2023/09/17 02:51:51;;;;;;;22.00;18.73;;;14.80;99.90;;;;;;4975211;28;20042;-79
2023/09/17 02:54:17;;;;;;;20.50;17.17;;;14.90;99.90;;;;;;4991993;28;20060;-79
2023/09/17 02:56:42;;;;;;;21.73;19.27;;;14.90;99.90;;;;;;4991129;28;20117;-79
2023/09/17 02:59:08;;;;;;;23.23;19.58;;;15.00;99.90;;;;;;4987578;28;20101;-78
2023/09/17 03:01:35;;;;;;;22.13;18.92;;;15.00;99.90;;;;;;4989872;28;20043;-78
2023/09/17 03:04:01;;;;;;;24.70;20.48;;;15.10;99.90;;;;;;4974361;28;21324;-78
2023/09/17 03:06:26;;;;;;;19.02;16.95;;;15.00;99.90;;;;;;4990997;28;20066;-80
2023/09/17 03:08:54;;;;;;;23.17;19.13;;;15.00;99.90;;;;;;4987557;28;20038;-78
2023/09/17 03:11:21;;;;;;;23.67;18.80;;;15.10;99.90;;;;;;4987026;28;20046;-80
2023/09/17 03:13:47;;;;;;;23.35;19.38;;;15.10;99.90;;;;;;4987897;28;20096;-79
2023/09/17 03:16:15;;;;;;;26.35;20.70;;;15.20;99.90;;;;;;4989783;28;20061;-79
2023/09/17 03:18:44;;;;;;;21.52;17.73;;;15.20;99.90;;;;;;4987623;28;20046;-78
2023/09/17 03:21:11;;;;;;;21.95;19.23;;;15.10;99.90;;;;;;4986496;28;20045;-79
2023/09/17 03:23:37;;;;;;;23.63;20.95;;;15.20;99.90;;;;;;4990873;28;20506;-79
2023/09/17 03:26:04;;;;;;;23.33;20.20;;;15.20;99.90;;;;;;4989800;28;20069;-80
2023/09/17 03:28:33;;;;;;;21.17;18.88;;;15.30;99.90;;;;;;4987792;28;20580;-80
2023/09/17 03:30:59;;;;;;;27.23;20.02;;;15.20;99.90;;;;;;4988197;28;20054;-80
2023/09/17 03:33:25;;;;;;;25.70;21.08;;;15.20;99.90;;;;;;4973368;28;20445;-79
2023/09/17 03:35:51;;;;;;;25.58;20.48;;;15.20;99.90;;;;;;4972051;28;20056;-79
2023/09/17 03:38:17;;;;;;;24.60;20.70;;;15.30;99.90;;;;;;4986493;28;20117;-79
2023/09/17 03:40:43;;;;;;;24.55;20.35;;;15.30;99.90;;;;;;4992495;28;20528;-79
2023/09/17 03:43:09;;;;;;;23.88;20.98;;;15.30;99.90;;;;;;4988893;28;20042;-79
2023/09/17 03:45:34;;;;;;;22.92;20.33;;;15.30;99.90;;;;;;4988160;28;20121;-79
2023/09/17 03:48:00;;;;;;;27.50;20.85;;;15.40;99.90;;;;;;4988699;28;20118;-80
2023/09/17 03:50:27;;;;;;;25.83;21.02;;;15.30;99.90;;;;;;4988055;28;20033;-80
2023/09/17 03:52:56;;;;;;;26.33;21.13;;;15.40;99.90;;;;;;4985929;28;20118;-79
2023/09/17 03:55:23;;;;;;;26.58;21.33;;;15.40;99.90;;;;;;4967558;28;20038;-80
2023/09/17 03:57:49;;;;;;;24.70;20.65;;;15.40;99.90;;;;;;4988603;28;20078;-79
2023/09/17 04:00:16;;;;;;;20.55;18.00;;;15.40;99.90;;;;;;4988983;28;20053;-79
2023/09/17 04:02:42;;;;;;;27.42;20.67;;;15.40;99.90;;;;;;4987670;28;20050;-80
2023/09/17 04:05:16;;;;;;;22.90;20.20;;;15.40;99.90;;;;;;4989310;28;20084;-79
2023/09/17 04:07:44;;;;;;;24.70;21.08;;;15.40;99.90;;;;;;4973068;28;20054;-80
2023/09/17 04:10:10;;;;;;;26.23;22.25;;;15.40;99.90;;;;;;4987563;28;20030;-79
2023/09/17 04:12:37;;;;;;;23.40;20.33;;;15.40;99.90;;;;;;4986478;28;20046;-80
2023/09/17 04:15:12;;;;;;;24.60;21.85;;;15.40;99.90;;;;;;4983264;28;20047;-80
2023/09/17 04:17:38;;;;;;;26.75;21.75;;;15.40;99.90;;;;;;4985650;28;20383;-80
2023/09/17 04:20:09;;;;;;;24.30;21.30;;;15.50;99.90;;;;;;4988390;28;20035;-80
2023/09/17 04:22:35;;;;;;;26.10;21.73;;;15.50;99.90;;;;;;4989681;28;20097;-80
2023/09/17 04:25:00;;;;;;;25.85;22.30;;;15.40;99.90;;;;;;4988332;28;20089;-79
2023/09/17 04:27:26;;;;;;;25.02;21.45;;;15.40;99.90;;;;;;4985413;28;20405;-79
2023/09/17 04:29:52;;;;;;;24.15;20.95;;;15.50;99.90;;;;;;4991207;28;20030;-79
2023/09/17 04:32:18;;;;;;;24.33;21.17;;;15.40;99.90;;;;;;4988821;28;20039;-80
2023/09/17 04:34:43;;;;;;;25.67;21.83;;;15.40;99.90;;;;;;4991716;28;20042;-80
2023/09/17 04:37:10;;;;;;;27.77;23.30;;;15.40;99.90;;;;;;4992203;28;20062;-80
2023/09/17 04:39:35;;;;;;;23.95;21.30;;;15.50;99.90;;;;;;4986564;28;20409;-80
2023/09/17 04:42:01;;;;;;;26.92;23.45;;;15.50;99.90;;;;;;4992663;28;20038;-79
2023/09/17 04:44:28;;;;;;;29.67;24.35;;;15.50;99.90;;;;;;4999007;28;20069;-79
2023/09/17 04:46:54;;;;;;;26.00;23.05;;;15.50;99.90;;;;;;4991612;28;20413;-79
2023/09/17 04:49:19;;;;;;;28.23;24.60;;;15.40;99.90;;;;;;4991662;28;20034;-79
2023/09/17 04:51:45;;;;;;;28.20;24.02;;;15.40;99.90;;;;;;4991852;28;20065;-78
2023/09/17 04:54:10;;;;;;;29.00;25.10;;;15.40;99.90;;;;;;4993002;28;20129;-78
2023/09/17 04:56:37;;;;;;;28.40;23.85;;;15.40;99.90;;;;;;4991317;28;20046;-78
2023/09/17 04:59:04;;;;;;;31.92;26.00;;;15.40;99.90;;;;;;4991927;28;20129;-78
2023/09/17 05:01:29;;;;;;;29.75;24.92;;;15.40;99.90;;;;;;4992683;28;20379;-79
2023/09/17 05:03:55;;;;;;;30.90;25.00;;;15.50;99.90;;;;;;4992483;28;20061;-79
2023/09/17 05:06:21;;;;;;;31.60;24.63;;;15.40;99.90;;;;;;4990115;28;20409;-79
2023/09/17 05:08:46;;;;;;;29.60;25.83;;;15.50;99.90;;;;;;4971000;28;20129;-78
2023/09/17 05:11:12;;;;;;;30.23;24.50;;;15.50;99.90;;;;;;4991465;28;20034;-79
2023/09/17 05:13:37;;;;;;;26.98;23.35;;;15.50;99.90;;;;;;4990852;28;20083;-79
2023/09/17 05:16:04;;;;;;;34.00;25.38;;;15.50;99.90;;;;;;4981968;28;20058;-79
2023/09/17 05:18:29;;;;;;;30.20;24.50;;;15.50;99.90;;;;;;4988653;28;20121;-79
2023/09/17 05:20:55;;;;;;;30.00;25.30;;;15.70;99.90;;;;;;4991176;28;20161;-80
2023/09/17 05:23:21;;;;;;;28.95;25.73;;;15.60;99.90;;;;;;4992431;28;20055;-80
2023/09/17 05:25:47;;;;;;;32.72;27.25;;;15.60;99.90;;;;;;4986472;28;20096;-79
2023/09/17 05:28:12;;;;;;;30.50;26.15;;;15.60;99.90;;;;;;4983869;28;20043;-79
2023/09/17 05:30:38;;;;;;;33.92;25.95;;;15.60;99.90;;;;;;4989623;28;20073;-79
2023/09/17 05:33:04;;;;;;;34.85;28.98;;;15.60;99.90;;;;;;4989963;28;20038;-80
2023/09/17 05:35:31;;;;;;;33.67;27.67;;;15.70;99.90;;;;;;4989887;28;20080;-80
2023/09/17 05:37:57;;;;;;;33.15;26.58;;;15.70;99.90;;;;;;4988088;28;20066;-79
2023/09/17 05:40:23;;;;;;;35.47;28.40;;;15.70;99.90;;;;;;4980292;28;20046;-79
2023/09/17 05:42:49;;;;;;;33.10;28.08;;;15.70;99.90;;;;;;4991846;28;20419;-82
2023/09/17 05:45:15;;;;;;;34.20;28.05;;;15.70;99.90;;;;;;5002945;28;20045;-79
2023/09/17 05:47:42;;;;;;;33.80;27.95;;;15.70;99.90;;;;;;4993532;28;20308;-79
2023/09/17 05:50:09;;;;;;;33.38;27.02;;;15.70;99.90;;;;;;4991977;28;20223;-79
2023/09/17 05:52:35;;;;;;;35.38;28.08;;;15.80;99.90;;;;;;4991576;28;20461;-80
2023/09/17 05:55:03;;;;;;;35.67;28.65;;;15.80;99.90;;;;;;5005983;28;20043;-79
2023/09/17 05:57:29;;;;;;;32.58;27.60;;;15.80;99.90;;;;;;4990276;28;20453;-79
2023/09/17 05:59:54;;;;;;;33.22;28.02;;;15.80;99.90;;;;;;4988755;28;20046;-80
2023/09/17 06:02:20;;;;;;;36.58;30.13;;;15.90;99.90;;;;;;4989422;28;20406;-80
2023/09/17 06:04:47;;;;;;;33.30;28.50;;;15.90;99.90;;;;;;4989481;28;20084;-79
2023/09/17 06:07:14;;;;;;;33.10;28.73;;;15.90;99.90;;;;;;4986030;28;20042;-79
2023/09/17 06:09:40;;;;;;;34.05;29.10;;;15.90;99.90;;;;;;4988942;28;20539;-78
2023/09/17 06:12:06;;;;;;;35.75;29.73;;;16.00;99.90;;;;;;4992122;28;20034;-80
2023/09/17 06:14:31;;;;;;;39.20;30.58;;;16.00;99.90;;;;;;4991970;28;20046;-79
2023/09/17 06:16:57;;;;;;;36.20;30.73;;;16.10;99.90;;;;;;4991465;28;20121;-80
2023/09/17 06:19:22;;;;;;;36.85;31.77;;;16.10;99.90;;;;;;4987429;28;20505;-80
2023/09/17 06:21:48;;;;;;;39.00;31.90;;;16.10;99.90;;;;;;4977354;28;20416;-81
2023/09/17 06:24:14;;;;;;;37.95;30.55;;;16.20;99.90;;;;;;4991901;28;20105;-82
2023/09/17 06:26:39;;;;;;;37.83;32.50;;;16.20;99.90;;;;;;4991640;28;20042;-80
2023/09/17 06:29:05;;;;;;;38.17;32.20;;;16.20;99.90;;;;;;4991580;28;20124;-82
2023/09/17 06:31:31;;;;;;;36.47;32.13;;;16.30;99.90;;;;;;4993736;28;20401;-82
2023/09/17 06:33:57;;;;;;;36.80;31.05;;;16.30;99.90;;;;;;4985977;28;20034;-81
2023/09/17 06:36:22;;;;;;;39.40;32.45;;;16.40;99.90;;;;;;4990784;28;20050;-80
2023/09/17 06:38:48;;;;;;;35.58;31.33;;;16.40;99.90;;;;;;4988323;28;20041;-80
2023/09/17 06:41:13;;;;;;;36.95;32.83;;;16.40;99.90;;;;;;4990907;28;20045;-79
2023/09/17 06:43:39;;;;;;;36.63;30.48;;;16.40;99.90;;;;;;4988762;28;20046;-79
2023/09/17 06:46:05;;;;;;;35.60;31.42;;;16.50;99.90;;;;;;4989984;28;20069;-79
2023/09/17 06:48:31;;;;;;;36.80;31.33;;;16.50;99.90;;;;;;4991689;28;20042;-78
2023/09/17 06:50:57;;;;;;;39.25;32.22;;;16.60;99.90;;;;;;4990169;28;20045;-80
2023/09/17 06:53:23;;;;;;;39.83;32.10;;;16.60;99.90;;;;;;4992151;28;20038;-80
2023/09/17 06:55:49;;;;;;;35.78;31.92;;;16.70;99.90;;;;;;4990287;28;20034;-80
2023/09/17 06:58:16;;;;;;;37.70;31.50;;;16.70;99.90;;;;;;4992297;28;20089;-80
2023/09/17 07:00:43;;;;;;;35.85;31.00;;;16.80;99.90;;;;;;5003212;28;20074;-80
2023/09/17 07:03:08;;;;;;;35.20;30.00;;;16.80;99.90;;;;;;4974602;28;20048;-78
2023/09/17 07:05:34;;;;;;;34.95;30.10;;;16.90;99.90;;;;;;4986162;28;20046;-79
2023/09/17 07:07:59;;;;;;;34.45;29.33;;;17.00;99.90;;;;;;5009306;28;20085;-79
2023/09/17 07:10:25;;;;;;;34.50;28.80;;;17.10;99.90;;;;;;4987718;28;20089;-80
2023/09/17 07:12:51;;;;;;;33.83;29.38;;;17.10;99.90;;;;;;4994032;28;20081;-81
2023/09/17 07:15:18;;;;;;;32.30;27.35;;;17.20;99.90;;;;;;4995830;28;20100;-78
2023/09/17 07:17:44;;;;;;;32.42;28.05;;;17.20;99.90;;;;;;4989937;28;20042;-81
2023/09/17 07:20:13;;;;;;;32.42;28.77;;;17.30;99.90;;;;;;5009548;28;20049;-79
2023/09/17 07:22:40;;;;;;;32.42;28.95;;;17.30;99.90;;;;;;4992370;28;20049;-80
2023/09/17 07:25:05;;;;;;;31.98;28.58;;;17.40;99.90;;;;;;4989552;28;20439;-80
2023/09/17 07:27:32;;;;;;;33.15;29.65;;;17.50;99.90;;;;;;4989283;28;20084;-79
2023/09/17 07:29:58;;;;;;;33.45;29.85;;;17.60;99.90;;;;;;4993602;28;20045;-80
2023/09/17 07:32:29;;;;;;;33.17;29.48;;;17.80;99.90;;;;;;4993548;28;20046;-78
2023/09/17 07:34:55;;;;;;;32.45;29.02;;;17.90;99.90;;;;;;4993014;28;20041;-79
2023/09/17 07:37:22;;;;;;;31.65;28.25;;;18.00;99.90;;;;;;4991005;28;20109;-80
2023/09/17 07:39:53;;;;;;;32.00;28.52;;;18.00;99.90;;;;;;4990929;28;20034;-80
2023/09/17 07:42:19;;;;;;;34.33;27.55;;;18.10;99.90;;;;;;4984844;28;20038;-79
2023/09/17 07:44:44;;;;;;;30.85;27.48;;;18.10;99.90;;;;;;4967942;28;20053;-80
2023/09/17 07:47:12;;;;;;;32.38;27.08;;;18.10;99.90;;;;;;4992494;28;20395;-81
2023/09/17 07:49:37;;;;;;;32.38;27.58;;;18.10;99.90;;;;;;4989902;28;20512;-78
2023/09/17 07:52:04;;;;;;;32.10;28.08;;;18.10;99.90;;;;;;4991818;28;20121;-80
2023/09/17 07:54:30;;;;;;;31.10;26.73;;;18.10;99.90;;;;;;4991618;28;20026;-80
2023/09/17 07:56:56;;;;;;;31.30;28.00;;;18.10;99.90;;;;;;4991919;28;20043;-80
2023/09/17 07:59:21;;;;;;;31.63;28.17;;;18.10;99.90;;;;;;4988983;28;20058;-79
2023/09/17 08:01:49;;;;;;;34.10;28.52;;;18.10;99.90;;;;;;4987811;28;20038;-78
2023/09/17 08:04:15;;;;;;;31.83;28.13;;;18.00;99.90;;;;;;4987136;28;20039;-81
2023/09/17 08:06:41;;;;;;;31.50;28.20;;;18.00;99.90;;;;;;4987060;28;20511;-78
2023/09/17 08:09:06;;;;;;;31.70;28.15;;;18.00;99.90;;;;;;4978612;28;20110;-80
2023/09/17 08:11:32;;;;;;;33.13;27.58;;;17.90;99.90;;;;;;4984045;28;20026;-81
2023/09/17 08:13:58;;;;;;;30.00;26.30;;;18.00;99.90;;;;;;4991151;28;20049;-79
2023/09/17 08:16:25;;;;;;;33.50;25.95;;;17.90;99.90;;;;;;4990910;28;20053;-80
2023/09/17 08:18:51;;;;;;;31.10;26.08;;;17.90;99.90;;;;;;4991243;28;20100;-77
2023/09/17 08:21:17;;;;;;;28.73;25.52;;;17.90;99.90;;;;;;4994595;28;20030;-79
2023/09/17 08:23:45;;;;;;;28.60;25.60;;;17.90;99.90;;;;;;4994593;28;20615;-79
2023/09/17 08:26:10;;;;;;;29.42;26.25;;;17.90;99.90;;;;;;4999942;28;20046;-80
2023/09/17 08:28:37;;;;;;;28.98;25.92;;;17.90;99.90;;;;;;4990792;28;20049;-80
2023/09/17 08:31:03;;;;;;;29.10;25.95;;;17.90;99.90;;;;;;4990752;28;20082;-80
2023/09/17 08:33:28;;;;;;;27.05;23.83;;;17.90;99.90;;;;;;4988067;28;20035;-79
2023/09/17 08:35:54;;;;;;;26.52;23.70;;;18.00;99.90;;;;;;4988165;28;20065;-79
2023/09/17 08:38:19;;;;;;;27.27;24.38;;;18.00;99.90;;;;;;4990926;28;20035;-80
2023/09/17 08:40:46;;;;;;;26.75;23.80;;;18.10;99.90;;;;;;4974979;28;20068;-80
2023/09/17 08:43:12;;;;;;;27.17;24.27;;;18.20;99.90;;;;;;4963652;28;20395;-80
2023/09/17 08:45:38;;;;;;;27.40;23.38;;;18.20;99.90;;;;;;4972378;28;20494;-80
2023/09/17 08:48:04;;;;;;;25.10;21.40;;;18.20;99.90;;;;;;4990721;28;20134;-79
2023/09/17 08:50:31;;;;;;;25.48;22.77;;;18.20;99.90;;;;;;4991232;28;20085;-80
2023/09/17 08:53:02;;;;;;;24.33;20.65;;;18.10;99.90;;;;;;4990368;28;20121;-82
2023/09/17 08:55:28;;;;;;;23.13;20.70;;;18.00;99.90;;;;;;4990934;28;20045;-79
2023/09/17 08:58:11;;;;;;;23.55;21.10;;;17.90;99.90;;;;;;4990459;28;20460;-79
2023/09/17 09:00:39;;;;;;;23.00;20.63;;;17.90;99.90;;;;;;4974229;28;20053;-80
2023/09/17 09:03:07;;;;;;;23.25;20.75;;;17.90;99.90;;;;;;4988402;28;20046;-80
2023/09/17 09:05:35;;;;;;;22.20;19.85;;;18.00;99.90;;;;;;4987095;28;20042;-80
2023/09/17 09:08:01;;;;;;;23.30;20.65;;;18.00;99.90;;;;;;4991890;28;20066;-80
2023/09/17 09:10:26;;;;;;;25.25;21.55;;;18.10;99.90;;;;;;4983760;28;20035;-79
2023/09/17 09:12:52;;;;;;;23.60;21.08;;;18.10;99.90;;;;;;4987737;28;20524;-78
2023/09/17 09:15:18;;;;;;;23.17;19.92;;;18.20;99.90;;;;;;4975978;28;20026;-78
2023/09/17 09:17:43;;;;;;;23.33;20.60;;;18.30;99.90;;;;;;4975366;28;20101;-78
2023/09/17 09:20:14;;;;;;;22.63;20.23;;;18.30;99.90;;;;;;4992002;28;20043;-81
2023/09/17 09:22:46;;;;;;;21.58;19.25;;;18.40;99.90;;;;;;4993153;28;20046;-79
2023/09/17 09:25:16;;;;;;;24.25;21.23;;;18.40;99.90;;;;;;4994527;28;20035;-80
2023/09/17 09:27:42;;;;;;;23.70;20.85;;;18.40;99.90;;;;;;4982399;28;20106;-81
2023/09/17 09:30:10;;;;;;;23.95;21.45;;;18.40;99.90;;;;;;4996317;28;20124;-80
2023/09/17 09:32:36;;;;;;;27.52;22.10;;;18.30;99.90;;;;;;4989219;28;20142;-79
2023/09/17 09:35:03;;;;;;;25.67;22.20;;;18.20;99.90;;;;;;4972591;28;20117;-80
2023/09/17 09:37:29;;;;;;;26.77;22.65;;;18.10;99.90;;;;;;4977110;28;20046;-80
2023/09/17 09:39:55;;;;;;;24.98;22.05;;;18.10;99.90;;;;;;4991042;28;20112;-80
2023/09/17 09:42:23;;;;;;;25.75;22.25;;;18.00;99.90;;;;;;4985120;28;20572;-80
2023/09/17 09:44:52;;;;;;;23.52;21.02;;;18.00;99.90;;;;;;4973453;28;20093;-79
2023/09/17 09:47:21;;;;;;;25.83;22.52;;;17.90;99.90;;;;;;4989006;28;20129;-80
2023/09/17 09:49:47;;;;;;;25.60;22.80;;;17.90;99.90;;;;;;4988330;28;20042;-79
2023/09/17 09:52:16;;;;;;;25.63;22.42;;;17.90;99.90;;;;;;4993279;28;20386;-80
2023/09/17 09:54:43;;;;;;;26.48;23.33;;;17.90;99.90;;;;;;4989326;28;20070;-80
2023/09/17 09:57:12;;;;;;;25.98;22.45;;;18.00;99.90;;;;;;4984665;28;20461;-79
2023/09/17 09:59:37;;;;;;;26.65;21.83;;;18.00;99.90;;;;;;4986344;28;20073;-79
2023/09/17 10:02:04;;;;;;;25.95;22.50;;;18.00;99.90;;;;;;4990250;28;20477;-80
2023/09/17 10:04:30;;;;;;;26.35;22.25;;;18.10;99.90;;;;;;4991238;28;20038;-82
2023/09/17 10:06:57;;;;;;;25.83;21.55;;;18.10;99.90;;;;;;4990879;28;20105;-80
2023/09/17 10:09:26;;;;;;;25.40;21.77;;;18.10;99.90;;;;;;4971114;28;20042;-81
2023/09/17 10:11:53;;;;;;;26.05;22.70;;;18.20;99.90;;;;;;4985186;28;20046;-80
2023/09/17 10:14:21;;;;;;;26.23;23.38;;;18.20;99.90;;;;;;4990155;28;20120;-80
2023/09/17 10:16:49;;;;;;;25.92;23.17;;;18.20;99.90;;;;;;4986687;28;20058;-79
2023/09/17 10:19:19;;;;;;;27.00;22.73;;;18.30;99.90;;;;;;4988571;28;20066;-79
2023/09/17 10:21:46;;;;;;;27.02;22.65;;;18.30;99.90;;;;;;5005815;28;20081;-78
2023/09/17 10:24:13;;;;;;;25.73;21.88;;;18.30;99.90;;;;;;4982211;28;20046;-78
2023/09/17 10:26:42;;;;;;;26.63;22.10;;;18.40;99.90;;;;;;4988071;28;20038;-78
2023/09/17 10:29:10;;;;;;;25.10;22.30;;;18.40;99.90;;;;;;4986766;28;20041;-78
2023/09/17 10:31:36;;;;;;;24.83;22.17;;;18.40;99.90;;;;;;4986872;28;20118;-78
2023/09/17 10:34:03;;;;;;;26.80;21.77;;;18.40;99.90;;;;;;4968512;28;20050;-80
2023/09/17 10:36:31;;;;;;;27.23;23.10;;;18.50;99.90;;;;;;4989157;28;20065;-80
2023/09/17 10:38:59;;;;;;;26.88;22.65;;;18.50;99.90;;;;;;4989190;28;20042;-79
2023/09/17 10:41:28;;;;;;;27.92;23.38;;;18.60;99.90;;;;;;4989679;28;20046;-80
2023/09/17 10:43:55;;;;;;;26.13;22.70;;;18.60;99.90;;;;;;4987732;28;20146;-78
2023/09/17 10:46:22;;;;;;;27.20;22.95;;;18.70;99.90;;;;;;4981380;28;20050;-79
2023/09/17 10:48:50;;;;;;;26.98;23.67;;;18.80;99.90;;;;;;4984895;28;20034;-80
2023/09/17 10:51:17;;;;;;;24.50;21.88;;;18.80;99.90;;;;;;4988409;28;20048;-78
2023/09/17 10:53:43;;;;;;;24.27;21.38;;;18.90;99.90;;;;;;4988174;28;20046;-80
2023/09/17 10:56:10;;;;;;;24.45;21.85;;;18.90;99.90;;;;;;4989358;28;20121;-79
2023/09/17 10:58:42;;;;;;;26.65;21.98;;;18.90;99.90;;;;;;4985555;28;20121;-79
2023/09/17 11:01:10;;;;;;;23.35;20.67;;;18.80;99.90;;;;;;4989820;28;20054;-79
2023/09/17 11:03:39;;;;;;;23.00;20.10;;;18.80;99.90;;;;;;4990830;28;20049;-79
2023/09/17 11:06:16;;;;;;;24.05;21.48;;;18.80;99.90;;;;;;4989209;28;20056;-79
2023/09/17 11:08:46;;;;;;;23.35;20.83;;;18.80;99.90;;;;;;4986736;28;20086;-79
2023/09/17 11:11:14;;;;;;;26.05;22.13;;;18.80;99.90;;;;;;4987297;28;20034;-79
2023/09/17 11:13:42;;;;;;;24.08;19.73;;;18.90;99.90;;;;;;4987921;28;20042;-78
2023/09/17 11:16:08;;;;;;;25.08;21.13;;;18.90;99.90;;;;;;4988581;28;20049;-78
2023/09/17 11:18:34;;;;;;;26.02;20.10;;;18.90;99.90;;;;;;4992771;28;20046;-76
2023/09/17 11:21:06;;;;;;;22.17;19.88;;;19.00;99.90;;;;;;4987604;28;20034;-78
2023/09/17 11:23:45;;;;;;;23.73;20.50;;;19.00;99.90;;;;;;4982211;28;20509;-79
2023/09/17 11:26:19;;;;;;;24.13;20.90;;;19.10;99.90;;;;;;4981207;28;20049;-78
2023/09/17 11:28:50;;;;;;;;;;;19.20;99.90;;;;;;4989391;28;20442;-80
2023/09/17 11:31:16;;;;;;;28.08;20.90;;;19.50;99.90;;;;;;4968696;28;19925;-78
2023/09/17 11:33:42;;;;;;;22.90;20.05;;;19.70;99.90;;;;;;4985977;28;20042;-78
2023/09/17 11:36:08;;;;;;;22.50;20.02;;;19.90;99.90;;;;;;4972828;28;20104;-79
2023/09/17 11:38:34;;;;;;;20.83;18.73;;;20.00;99.90;;;;;;4990232;28;20112;-79
2023/09/17 11:41:07;;;;;;;22.35;19.95;;;20.00;99.90;;;;;;4973628;28;20117;-79
2023/09/17 11:43:35;;;;;;;23.70;20.35;;;20.00;99.90;;;;;;4985372;28;20042;-78
2023/09/17 11:46:06;;;;;;;21.23;18.95;;;19.80;99.90;;;;;;4989535;28;20104;-79
2023/09/17 11:48:33;;;;;;;23.42;20.60;;;19.70;99.90;;;;;;4989833;28;20104;-77
2023/09/17 11:51:19;;;;;;;23.65;19.83;;;19.50;99.90;;;;;;4985986;28;20093;-78
2023/09/17 11:54:06;;;;;;;22.35;19.98;;;19.40;99.90;;;;;;4986721;28;20077;-78
2023/09/17 11:56:33;;;;;;;23.17;20.70;;;19.30;99.90;;;;;;4989225;28;20520;-79
2023/09/17 11:59:03;;;;;;;24.58;21.13;;;19.30;99.90;;;;;;4990261;28;20050;-79
2023/09/17 12:01:32;;;;;;;24.35;21.75;;;19.30;99.90;;;;;;4990497;28;20034;-80
2023/09/17 12:03:58;;;;;;;23.17;20.73;;;19.40;99.90;;;;;;4988802;28;20042;-78
2023/09/17 12:06:26;;;;;;;22.15;19.85;;;19.50;99.90;;;;;;4987967;28;20066;-79
2023/09/17 12:08:52;;;;;;;22.52;20.15;;;19.60;99.90;;;;;;4990189;28;20049;-79
2023/09/17 12:11:24;;;;;;;23.13;20.35;;;19.90;99.90;;;;;;4988497;28;20035;-78
2023/09/17 12:13:53;;;;;;;22.40;19.80;;;20.20;99.90;;;;;;4987893;28;20402;-79
2023/09/17 12:16:23;;;;;;;23.15;19.73;;;20.40;99.90;;;;;;4980724;28;20038;-79
2023/09/17 12:18:51;;;;;;;22.52;19.50;;;20.70;99.90;;;;;;4987460;28;20054;-79
2023/09/17 12:21:19;;;;;;;20.83;18.63;;;20.80;99.90;;;;;;4977653;28;20085;-80
2023/09/17 12:23:57;;;;;;;20.88;18.73;;;20.90;99.90;;;;;;4986519;28;20129;-80
2023/09/17 12:26:37;;;;;;;20.60;18.48;;;21.10;99.90;;;;;;4997617;28;20038;-79
2023/09/17 12:29:10;;;;;;;20.42;18.20;;;21.40;99.90;;;;;;4979968;28;20038;-78